Time;durP1;ratioP1;P1;durP2;ratioP2;P2;SDS_P1;SDS_P2;PMS_P1;PMS_P2;Temp;Humidity;BMP_temperature;BMP_pressure;BME280_temperature;BME280_humidity;BME280_pressure;Samples;Min_cycle;Max_cycle;Signal;HPM_P1;HPM_P2
2023/08/09 00:00:19;;;;;;;3.28;1.70;;;;;;;25.75;37.96;99815.75;4301352;33;33636;-71
2023/08/09 00:02:47;;;;;;;4.03;1.87;;;;;;;25.75;37.97;99807.53;4301207;33;33644;-71
2023/08/09 00:05:15;;;;;;;4.37;1.92;;;;;;;25.75;37.92;99803.97;4301255;33;32524;-71
2023/08/09 00:07:42;;;;;;;4.45;2.12;;;;;;;25.75;37.87;99812.19;4289159;33;33217;-71
2023/08/09 00:10:10;;;;;;;3.45;2.10;;;;;;;25.75;37.89;99806.72;4306790;33;33404;-71
2023/08/09 00:12:38;;;;;;;4.15;1.58;;;;;;;25.75;37.87;99806.72;4303127;33;33118;-71
2023/08/09 00:15:06;;;;;;;3.90;1.90;;;;;;;25.74;37.91;99814.09;4302756;33;33963;-71
2023/08/09 00:17:37;;;;;;;2.87;1.58;;;;;;;25.73;37.86;99817.87;4303753;33;34221;-71
2023/08/09 00:20:08;;;;;;;4.70;1.83;;;;;;;25.72;37.80;99810.75;4280224;33;34185;-71
2023/08/09 00:22:36;;;;;;;4.00;1.80;;;;;;;25.73;37.82;99811.56;4280121;33;33660;-71
2023/08/09 00:25:05;;;;;;;6.07;2.00;;;;;;;25.72;37.85;99816.22;4291485;33;33003;-71
2023/08/09 00:27:33;;;;;;;3.63;1.60;;;;;;;25.70;37.87;99816.47;4279783;33;32664;-71
2023/08/09 00:30:00;;;;;;;3.95;1.90;;;;;;;25.73;37.74;99817.87;4291643;33;33214;-71
2023/08/09 00:32:29;;;;;;;2.95;1.60;;;;;;;25.70;37.70;99816.47;4303493;33;34472;-71
2023/08/09 00:34:57;;;;;;;3.78;1.90;;;;;;;25.69;37.77;99809.34;4291440;33;33424;-71
2023/08/09 00:37:24;;;;;;;3.22;1.65;;;;;;;25.69;37.75;99814.81;4291397;33;33733;-71
2023/08/09 00:39:52;;;;;;;3.40;1.50;;;;;;;25.68;37.72;99810.41;4291848;33;33368;-71
2023/08/09 00:42:20;;;;;;;3.37;1.65;;;;;;;25.67;37.66;99806.00;4291020;33;33665;-71
2023/08/09 00:44:48;;;;;;;5.05;1.80;;;;;;;25.68;37.77;99799.47;4303240;33;35008;-71
2023/08/09 00:47:16;;;;;;;4.93;1.98;;;;;;;25.68;37.77;99798.62;4291369;33;33821;-71
2023/08/09 00:49:43;;;;;;;3.92;1.80;;;;;;;25.68;37.78;99798.62;4303160;33;34428;-71
2023/08/09 00:52:11;;;;;;;3.72;1.80;;;;;;;25.67;37.76;99803.28;4291165;33;34531;-71
2023/08/09 00:54:39;;;;;;;3.22;1.70;;;;;;;25.67;37.59;99807.91;4291308;33;33925;-71
2023/08/09 00:57:07;;;;;;;4.28;1.58;;;;;;;25.66;37.56;99801.63;4279263;33;32894;-71
2023/08/09 00:59:35;;;;;;;6.43;2.10;;;;;;;25.67;37.58;99807.91;4290683;33;33986;-71
2023/08/09 01:02:03;;;;;;;3.37;1.85;;;;;;;25.66;37.56;99809.00;4316315;33;34600;-71
2023/08/09 01:04:31;;;;;;;3.50;1.77;;;;;;;25.66;37.56;99807.09;4303135;33;33906;-71
2023/08/09 01:07:07;;;;;;;4.10;2.03;;;;;;;25.64;37.58;99811.94;4290925;33;33863;-70
2023/08/09 01:09:36;;;;;;;2.95;1.77;;;;;;;25.64;37.61;99814.69;4302685;33;33048;-71
2023/08/09 01:12:14;;;;;;;3.50;1.80;;;;;;;25.63;37.62;99804.81;4278870;33;32663;-71
2023/08/09 01:14:42;;;;;;;3.25;1.90;;;;;;;25.66;37.56;99807.09;4302845;33;33224;-71
2023/08/09 01:17:12;;;;;;;7.28;1.80;;;;;;;25.65;37.58;99804.59;4291167;33;33379;-71
2023/08/09 01:19:51;;;;;;;3.90;1.83;;;;;;;25.64;37.55;99805.66;4302779;33;33466;-71
2023/08/09 01:22:30;;;;;;;3.83;1.77;;;;;;;25.65;37.55;99799.97;4291193;33;33948;-72
2023/08/09 01:25:02;;;;;;;4.68;1.92;;;;;;;25.65;37.52;99793.69;4290645;33;34759;-71
2023/08/09 01:27:31;;;;;;;3.72;1.92;;;;;;;25.62;37.47;99797.72;4293127;33;34336;-71
2023/08/09 01:29:59;;;;;;;2.87;1.90;;;;;;;25.62;37.43;99802.34;4281337;33;33450;-71
2023/08/09 01:32:27;;;;;;;3.03;1.95;;;;;;;25.61;37.40;99798.78;4317961;33;33948;-70
2023/08/09 01:34:55;;;;;;;3.37;1.65;;;;;;;25.61;37.41;99797.97;4293121;33;33811;-71
2023/08/09 01:37:30;;;;;;;4.07;1.60;;;;;;;25.62;37.37;99794.16;4304861;33;34742;-71
2023/08/09 01:39:58;;;;;;;2.97;1.60;;;;;;;25.61;37.43;99798.78;4292952;33;33117;-71
2023/08/09 01:42:26;;;;;;;3.85;1.58;;;;;;;25.61;37.39;99795.22;4281141;33;32789;-71
2023/08/09 01:44:53;;;;;;;2.97;1.85;;;;;;;25.60;37.40;99794.41;4293148;33;34023;-71
2023/08/09 01:47:21;;;;;;;2.72;1.58;;;;;;;25.59;37.34;99795.44;4280846;33;34342;-71
2023/08/09 01:49:51;;;;;;;3.90;1.77;;;;;;;25.59;37.30;99800.91;4292849;33;33371;-71
2023/08/09 01:52:19;;;;;;;4.75;1.90;;;;;;;25.58;37.21;99793.78;4304638;33;33915;-71
2023/08/09 01:54:47;;;;;;;3.37;1.80;;;;;;;25.59;37.23;99794.63;4281090;33;33200;-71
2023/08/09 01:57:14;;;;;;;4.45;1.48;;;;;;;25.57;37.24;99794.03;4292668;33;32859;-71
2023/08/09 01:59:42;;;;;;;3.28;1.80;;;;;;;25.57;37.26;99792.12;4304679;33;34161;-71
2023/08/09 02:02:11;;;;;;;4.05;1.83;;;;;;;25.57;37.27;99789.41;4292861;33;33840;-71
2023/08/09 02:04:40;;;;;;;4.12;1.85;;;;;;;25.56;37.26;99793.22;4317940;33;33802;-71
2023/08/09 02:07:07;;;;;;;3.05;1.65;;;;;;;25.57;37.29;99792.12;4292658;33;33460;-71
2023/08/09 02:09:35;;;;;;;4.28;1.85;;;;;;;25.56;37.24;99795.13;4292452;33;32252;-71
2023/08/09 02:12:03;;;;;;;2.90;1.67;;;;;;;25.56;37.23;99797.84;4304455;33;34292;-71
2023/08/09 02:14:32;;;;;;;4.35;1.92;;;;;;;25.55;37.21;99794.25;4292529;33;33029;-71
2023/08/09 02:17:00;;;;;;;3.55;1.58;;;;;;;25.56;37.16;99804.16;4304889;33;33653;-71
2023/08/09 02:19:30;;;;;;;2.92;1.67;;;;;;;25.56;37.10;99797.84;4292898;33;33250;-71
2023/08/09 02:21:57;;;;;;;3.37;1.80;;;;;;;25.55;37.03;99797.00;4304585;33;34253;-71
2023/08/09 02:24:27;;;;;;;3.35;1.62;;;;;;;25.54;37.14;99814.47;4293063;33;34519;-71
2023/08/09 02:26:55;;;;;;;3.00;1.58;;;;;;;25.55;37.12;99804.38;4304411;33;33670;-71
2023/08/09 02:29:22;;;;;;;2.10;1.30;;;;;;;25.54;37.13;99808.19;4304430;33;33624;-71
2023/08/09 02:32:09;;;;;;;4.35;1.67;;;;;;;25.54;37.16;99813.62;4304563;33;34556;-71
2023/08/09 02:34:37;;;;;;;2.60;1.48;;;;;;;25.56;37.23;99814.25;4292534;33;32916;-71
2023/08/09 02:37:04;;;;;;;3.78;1.70;;;;;;;25.52;37.19;99816.63;4317546;33;33921;-71
2023/08/09 02:39:32;;;;;;;3.08;1.55;;;;;;;25.52;37.15;99819.34;4291795;33;32315;-71
2023/08/09 02:42:00;;;;;;;3.17;1.60;;;;;;;25.52;37.07;99813.88;4292312;33;34037;-71
2023/08/09 02:44:27;;;;;;;3.25;1.62;;;;;;;25.52;37.08;99816.63;4304540;33;33993;-71
2023/08/09 02:46:55;;;;;;;3.85;1.60;;;;;;;25.52;37.06;99824.00;4280351;33;33556;-71
2023/08/09 02:49:23;;;;;;;2.78;1.52;;;;;;;25.51;37.08;99825.03;4301750;33;32896;-71
2023/08/09 02:51:50;;;;;;;2.83;1.70;;;;;;;25.51;37.07;99823.16;4289910;33;33907;-71
2023/08/09 02:54:18;;;;;;;3.20;1.35;;;;;;;25.50;37.04;99826.94;4301683;33;33869;-71
2023/08/09 02:56:46;;;;;;;3.20;1.37;;;;;;;25.50;37.04;99820.66;4278242;33;34089;-71
2023/08/09 02:59:14;;;;;;;3.05;1.80;;;;;;;25.50;37.04;99824.22;4301745;33;34177;-71
2023/08/09 03:01:44;;;;;;;3.85;1.70;;;;;;;25.49;37.06;99836.22;4302957;33;33993;-71
2023/08/09 03:04:12;;;;;;;3.70;1.80;;;;;;;25.49;37.06;99825.28;4290164;33;34950;-71
2023/08/09 03:06:40;;;;;;;3.85;1.73;;;;;;;25.50;36.99;99828.84;4278028;33;32098;-71
2023/08/09 03:09:07;;;;;;;3.40;1.50;;;;;;;25.49;37.01;99827.19;4303092;33;33908;-71
2023/08/09 03:11:35;;;;;;;3.78;1.80;;;;;;;25.49;36.98;99835.38;4275479;33;34256;-71
2023/08/09 03:14:03;;;;;;;1.95;1.40;;;;;;;25.49;37.00;99830.75;4288575;33;34641;-71
2023/08/09 03:16:31;;;;;;;2.95;1.60;;;;;;;25.49;36.93;99838.94;4299037;33;33265;-71
2023/08/09 03:18:59;;;;;;;3.00;1.70;;;;;;;25.48;36.92;99836.47;4288722;33;33733;-71
2023/08/09 03:21:27;;;;;;;3.30;1.60;;;;;;;25.48;36.94;99840.03;4287237;33;34619;-70
2023/08/09 03:23:55;;;;;;;7.30;2.05;;;;;;;25.49;36.94;99838.94;4299162;33;33636;-71
2023/08/09 03:26:23;;;;;;;4.62;2.05;;;;;;;25.47;36.91;99830.16;4287362;33;34101;-71
2023/08/09 03:28:50;;;;;;;2.75;1.62;;;;;;;25.48;36.95;99829.09;4288461;33;33521;-71
2023/08/09 03:31:19;;;;;;;3.03;1.62;;;;;;;25.49;36.89;99838.12;4287391;33;33859;-71
2023/08/09 03:33:47;;;;;;;3.12;1.52;;;;;;;25.47;36.79;99834.81;4299323;33;34720;-71
2023/08/09 03:36:14;;;;;;;2.53;1.50;;;;;;;25.47;36.85;99840.28;4299072;33;33874;-71
2023/08/09 03:38:44;;;;;;;2.90;1.75;;;;;;;25.47;36.88;99826.63;4275667;33;34094;-71
2023/08/09 03:41:12;;;;;;;2.92;1.80;;;;;;;25.47;36.84;99843.84;4298815;33;33953;-71
2023/08/09 03:43:40;;;;;;;3.37;1.80;;;;;;;25.45;36.95;99841.31;4298947;33;34722;-71
2023/08/09 03:46:08;;;;;;;3.47;1.90;;;;;;;25.46;36.95;99833.97;4286962;33;33693;-71
2023/08/09 03:48:36;;;;;;;4.28;1.50;;;;;;;25.45;36.89;99840.50;4298777;33;33314;-71
2023/08/09 03:51:04;;;;;;;3.87;1.67;;;;;;;25.45;36.86;99835.84;4288498;33;33609;-71
2023/08/09 03:53:32;;;;;;;5.50;2.30;;;;;;;25.44;36.80;99833.37;4286970;33;33758;-71
2023/08/09 03:56:00;;;;;;;3.22;1.67;;;;;;;25.44;36.79;99839.66;4287004;33;33895;-71
2023/08/09 03:58:27;;;;;;;3.10;1.60;;;;;;;25.44;36.82;99836.09;4299072;33;32901;-71
2023/08/09 04:00:55;;;;;;;3.67;2.10;;;;;;;25.44;36.81;99831.47;4286858;33;33870;-71
2023/08/09 04:03:23;;;;;;;4.47;2.42;;;;;;;25.44;36.67;99836.09;4286836;33;32634;-71
2023/08/09 04:05:50;;;;;;;3.85;1.73;;;;;;;25.43;36.71;99840.75;4298570;33;33830;-71
2023/08/09 04:08:21;;;;;;;3.87;2.00;;;;;;;25.42;36.83;99847.28;4286891;33;34053;-71
2023/08/09 04:10:50;;;;;;;3.53;2.00;;;;;;;25.42;36.88;99847.28;4301171;33;34757;-71
2023/08/09 04:13:18;;;;;;;4.25;2.03;;;;;;;25.43;36.88;99856.31;4289138;33;33831;-71
2023/08/09 04:15:45;;;;;;;3.15;2.00;;;;;;;25.42;36.89;99855.47;4301151;33;33765;-73
2023/08/09 04:18:16;;;;;;;4.82;2.33;;;;;;;25.43;36.87;99861.75;4289103;33;33720;-71
2023/08/09 04:20:45;;;;;;;4.45;2.10;;;;;;;25.43;36.95;99859.03;4302019;33;34773;-71
2023/08/09 04:23:15;;;;;;;8.38;2.42;;;;;;;25.42;37.04;99855.47;4278007;33;34356;-72
2023/08/09 04:25:43;;;;;;;8.00;2.50;;;;;;;25.42;37.04;99850.00;4301208;33;33885;-71
2023/08/09 04:28:10;;;;;;;6.70;2.17;;;;;;;25.43;36.93;99856.31;4288947;33;32974;-71
2023/08/09 04:30:41;;;;;;;4.72;1.95;;;;;;;25.42;36.81;99851.91;4295342;33;33848;-71
2023/08/09 04:33:09;;;;;;;8.13;2.55;;;;;;;25.42;36.77;99850.00;4286333;33;34961;-71
2023/08/09 04:35:37;;;;;;;3.17;1.87;;;;;;;25.42;36.76;99843.72;4287571;33;33634;-72
2023/08/09 04:38:06;;;;;;;4.32;2.10;;;;;;;25.41;36.79;99837.44;4274624;33;35081;-71
2023/08/09 04:40:34;;;;;;;11.95;2.53;;;;;;;25.41;36.89;99834.69;4287318;33;33913;-71
2023/08/09 04:43:03;;;;;;;4.07;2.10;;;;;;;25.40;36.93;99840.37;4281486;33;33207;-71
2023/08/09 04:45:32;;;;;;;5.87;2.20;;;;;;;25.40;37.17;99834.91;4299359;33;33467;-72
2023/08/09 04:48:02;;;;;;;6.05;2.40;;;;;;;25.40;37.12;99841.19;4295336;33;32929;-72
2023/08/09 04:50:29;;;;;;;7.50;2.53;;;;;;;25.38;37.18;99848.81;4278519;33;33714;-71
2023/08/09 04:52:57;;;;;;;10.60;2.70;;;;;;;25.40;37.18;99845.84;4289977;33;33555;-71
2023/08/09 04:55:25;;;;;;;5.03;2.12;;;;;;;25.40;37.25;99851.31;4301954;33;34056;-71
2023/08/09 04:57:53;;;;;;;5.82;2.20;;;;;;;25.39;37.38;99845.00;4299884;33;32658;-71
2023/08/09 05:00:21;;;;;;;5.90;2.35;;;;;;;25.40;37.46;99851.31;4264833;33;32505;-71
2023/08/09 05:02:48;;;;;;;7.00;2.35;;;;;;;25.39;37.52;99855.13;4278437;33;33205;-71
2023/08/09 05:05:16;;;;;;;7.28;2.45;;;;;;;25.38;37.56;99840.63;4278493;33;32139;-71
2023/08/09 05:07:44;;;;;;;4.90;2.47;;;;;;;25.38;37.54;99854.28;4278586;33;32233;-71
2023/08/09 05:10:11;;;;;;;5.47;2.42;;;;;;;25.38;37.50;99848.00;4304681;33;33454;-71
2023/08/09 05:12:39;;;;;;;5.65;2.22;;;;;;;25.37;37.38;99852.62;4292754;33;32840;-72
2023/08/09 05:15:07;;;;;;;7.97;2.37;;;;;;;25.37;37.47;99851.81;4292921;33;32610;-71
2023/08/09 05:17:35;;;;;;;4.20;2.28;;;;;;;25.36;37.53;99852.84;4293342;33;33348;-72
2023/08/09 05:20:03;;;;;;;4.85;2.30;;;;;;;25.37;37.50;99851.81;4304733;33;33626;-72
2023/08/09 05:22:31;;;;;;;6.57;2.37;;;;;;;25.36;37.57;99852.84;4304241;33;34739;-71
2023/08/09 05:24:59;;;;;;;7.22;2.67;;;;;;;25.36;37.55;99863.78;4305044;33;33920;-71
2023/08/09 05:27:26;;;;;;;5.15;2.78;;;;;;;25.36;37.65;99861.03;4292912;33;32781;-71
2023/08/09 05:29:54;;;;;;;4.35;2.50;;;;;;;25.35;37.54;99865.69;4280945;33;32728;-71
2023/08/09 05:32:22;;;;;;;5.47;2.17;;;;;;;25.35;37.52;99865.69;4304895;33;33969;-72
2023/08/09 05:34:49;;;;;;;4.47;2.37;;;;;;;25.35;37.61;99857.47;4317342;33;34599;-71
2023/08/09 05:37:17;;;;;;;6.30;2.28;;;;;;;25.34;37.74;99855.81;4292820;33;33254;-71
2023/08/09 05:39:45;;;;;;;4.47;2.15;;;;;;;25.35;37.83;99857.47;4317914;33;33825;-71
2023/08/09 05:42:14;;;;;;;4.40;2.17;;;;;;;25.35;37.88;99848.47;4292774;33;33831;-72
2023/08/09 05:44:42;;;;;;;6.68;2.50;;;;;;;25.35;37.85;99849.28;4292980;33;34064;-71
2023/08/09 05:47:09;;;;;;;4.55;2.25;;;;;;;25.35;37.79;99853.91;4280737;33;31919;-72
2023/08/09 05:49:39;;;;;;;5.43;2.42;;;;;;;25.34;37.77;99853.09;4304855;33;33534;-71
2023/08/09 05:52:09;;;;;;;4.95;2.33;;;;;;;25.35;37.77;99848.47;4293324;33;33663;-72
2023/08/09 05:54:36;;;;;;;7.05;2.50;;;;;;;25.35;37.77;99862.94;4292742;33;33389;-71
2023/08/09 05:57:04;;;;;;;6.05;2.87;;;;;;;25.35;37.85;99862.94;4293084;33;33423;-71
2023/08/09 05:59:31;;;;;;;5.32;2.60;;;;;;;25.34;37.88;99857.72;4304347;33;33823;-71
2023/08/09 06:02:01;;;;;;;8.13;2.62;;;;;;;25.34;37.94;99861.28;4280806;33;32937;-71
2023/08/09 06:04:29;;;;;;;4.55;2.50;;;;;;;25.33;37.96;99859.62;4281195;33;32903;-71
2023/08/09 06:06:56;;;;;;;6.25;2.42;;;;;;;25.35;37.96;99865.69;4317716;33;34136;-71
2023/08/09 06:09:24;;;;;;;6.07;2.87;;;;;;;25.33;38.00;99851.44;4292751;33;33874;-71
2023/08/09 06:11:52;;;;;;;4.55;2.10;;;;;;;25.34;37.97;99857.72;4290022;33;33807;-71
2023/08/09 06:14:19;;;;;;;4.57;2.50;;;;;;;25.34;37.97;99849.53;4289318;33;34150;-71
2023/08/09 06:16:48;;;;;;;4.05;2.70;;;;;;;25.33;38.00;99845.16;4290157;33;32348;-71
2023/08/09 06:19:17;;;;;;;5.30;2.33;;;;;;;25.33;38.07;99851.44;4303345;33;33615;-71
2023/08/09 06:21:44;;;;;;;5.18;2.40;;;;;;;25.33;38.10;99842.41;4302984;33;34009;-71
2023/08/09 06:24:12;;;;;;;5.87;2.70;;;;;;;25.33;38.21;99854.16;4266712;33;33860;-72
2023/08/09 06:26:41;;;;;;;6.75;2.60;;;;;;;25.34;38.28;99861.28;4278180;33;32689;-71
2023/08/09 06:29:09;;;;;;;5.57;2.37;;;;;;;25.32;38.29;99847.06;4301958;33;33479;-71
2023/08/09 06:31:36;;;;;;;4.97;2.47;;;;;;;25.33;38.24;99850.59;4278304;33;34029;-72
2023/08/09 06:34:04;;;;;;;5.93;2.78;;;;;;;25.33;38.27;99850.59;4301729;33;32846;-72
2023/08/09 06:36:32;;;;;;;6.45;2.40;;;;;;;25.33;38.28;99842.41;4301829;33;33309;-71
2023/08/09 06:39:00;;;;;;;4.65;2.22;;;;;;;25.32;38.29;99844.31;4290045;33;34003;-71
2023/08/09 06:41:28;;;;;;;5.07;2.50;;;;;;;25.32;38.39;99849.78;4289675;33;33338;-71
2023/08/09 06:43:55;;;;;;;4.43;1.85;;;;;;;25.32;38.31;99848.94;4289792;33;33593;-71
2023/08/09 06:46:23;;;;;;;5.07;2.10;;;;;;;25.31;38.36;99853.56;4289907;33;32155;-71
2023/08/09 06:48:51;;;;;;;6.30;2.30;;;;;;;25.31;38.41;99856.28;4287396;33;32706;-71
2023/08/09 06:51:19;;;;;;;4.10;2.15;;;;;;;25.31;38.34;99859.03;4275422;33;33902;-71
2023/08/09 06:53:47;;;;;;;4.87;2.17;;;;;;;25.31;38.35;99858.19;4275507;33;32914;-72
2023/08/09 06:56:15;;;;;;;3.30;2.03;;;;;;;25.31;38.32;99858.19;4287467;33;32980;-71
2023/08/09 06:58:43;;;;;;;5.00;2.28;;;;;;;25.31;38.41;99856.28;4299091;33;33459;-72
2023/08/09 07:01:11;;;;;;;4.50;2.20;;;;;;;25.31;38.47;99860.91;4287306;33;33118;-71
2023/08/09 07:03:39;;;;;;;4.50;2.10;;;;;;;25.31;38.43;99858.19;4287250;33;33235;-72
2023/08/09 07:06:07;;;;;;;4.10;2.03;;;;;;;25.31;38.44;99852.72;4299053;33;33979;-71
2023/08/09 07:08:35;;;;;;;6.43;2.20;;;;;;;25.31;38.48;99852.72;4275636;33;34668;-71
2023/08/09 07:11:03;;;;;;;5.57;2.25;;;;;;;25.32;38.46;99854.38;4298187;33;34705;-71
2023/08/09 07:13:31;;;;;;;6.25;1.85;;;;;;;25.31;38.50;99861.75;4289848;33;33660;-72
2023/08/09 07:16:00;;;;;;;4.03;1.90;;;;;;;25.31;38.50;99852.72;4301786;33;33076;-71
2023/08/09 07:18:28;;;;;;;4.55;1.83;;;;;;;25.33;38.43;99856.06;4277815;33;34617;-71
2023/08/09 07:20:57;;;;;;;3.33;1.98;;;;;;;25.31;38.47;99848.09;4303056;33;33568;-72
2023/08/09 07:23:25;;;;;;;3.70;2.03;;;;;;;25.32;38.46;99855.25;4289534;33;32878;-71
2023/08/09 07:26:13;;;;;;;4.07;1.85;;;;;;;25.34;38.49;99849.53;4292070;33;34266;-71
2023/08/09 07:28:40;;;;;;;4.97;2.28;;;;;;;25.34;38.50;99850.38;4289710;33;32871;-71
2023/08/09 07:31:21;;;;;;;6.05;2.10;;;;;;;25.33;38.49;99839.69;4301590;33;34711;-71
2023/08/09 07:33:50;;;;;;;5.57;1.92;;;;;;;25.35;38.48;99848.47;4301536;33;34626;-71
2023/08/09 07:36:17;;;;;;;6.37;2.15;;;;;;;25.34;38.46;99852.25;4301535;33;33403;-72
2023/08/09 07:38:45;;;;;;;4.85;2.08;;;;;;;25.33;38.53;99843.25;4301457;33;33692;-71
2023/08/09 07:41:13;;;;;;;5.22;2.20;;;;;;;25.34;38.53;99849.53;4289463;33;32816;-71
2023/08/09 07:43:40;;;;;;;5.32;1.85;;;;;;;25.35;38.54;99852.00;4302618;33;34608;-71
2023/08/09 07:46:08;;;;;;;5.43;1.80;;;;;;;25.34;38.55;99853.09;4289510;33;33314;-72
2023/08/09 07:48:36;;;;;;;4.28;1.98;;;;;;;25.35;38.57;99851.19;4289308;33;33814;-71
2023/08/09 07:51:06;;;;;;;5.22;2.15;;;;;;;25.35;38.55;99849.28;4289559;33;33955;-72
2023/08/09 07:53:33;;;;;;;3.53;1.77;;;;;;;25.36;38.57;99841.91;4288541;33;34193;-72
2023/08/09 07:56:01;;;;;;;4.15;1.92;;;;;;;25.37;38.53;99851.81;4281196;33;33075;-72
2023/08/09 07:58:29;;;;;;;4.10;1.80;;;;;;;25.38;38.55;99850.72;4297815;33;34597;-72
2023/08/09 08:00:57;;;;;;;4.97;2.25;;;;;;;25.36;38.58;99850.13;4288459;33;33970;-73
2023/08/09 08:03:25;;;;;;;5.50;2.30;;;;;;;25.38;38.58;99853.47;4285201;33;34192;-72
2023/08/09 08:05:53;;;;;;;4.60;2.00;;;;;;;25.38;38.58;99853.47;4299211;33;32647;-73
2023/08/09 08:08:20;;;;;;;4.78;2.08;;;;;;;25.38;38.62;99850.72;4289430;33;33727;-74
2023/08/09 08:10:49;;;;;;;10.32;2.80;;;;;;;25.38;38.64;99848.00;4298366;33;33817;-70
2023/08/09 08:13:18;;;;;;;4.28;1.90;;;;;;;25.37;38.79;99840.87;4300952;33;33020;-71
2023/08/09 08:15:45;;;;;;;11.07;2.50;;;;;;;25.40;38.86;99851.31;4295704;33;33133;-72
2023/08/09 08:18:33;;;;;;;6.72;2.20;;;;;;;25.39;38.90;99849.66;4282459;33;32500;-68
2023/08/09 08:21:03;;;;;;;7.35;2.22;;;;;;;25.42;38.98;99851.91;4284710;33;32864;-69
2023/08/09 08:23:32;;;;;;;7.78;2.30;;;;;;;25.43;39.13;99853.56;4298440;33;33960;-70
2023/08/09 08:25:59;;;;;;;6.78;2.30;;;;;;;25.45;39.23;99860.44;4300849;33;33640;-71
2023/08/09 08:28:28;;;;;;;8.32;2.35;;;;;;;25.46;39.32;99861.28;4300516;33;33688;-70
2023/08/09 08:30:56;;;;;;;7.60;2.33;;;;;;;25.48;39.42;99853.69;4288606;33;36015;-70
2023/08/09 08:33:24;;;;;;;9.10;2.22;;;;;;;25.49;39.53;99852.59;4301127;33;33958;-70
2023/08/09 08:36:13;;;;;;;6.55;2.40;;;;;;;25.51;39.59;99857.81;4295026;33;32355;-71
2023/08/09 08:38:57;;;;;;;8.05;2.42;;;;;;;25.53;39.59;99853.78;4302465;33;33195;-71
2023/08/09 08:41:34;;;;;;;10.40;2.53;;;;;;;25.54;39.57;99858.19;4275939;33;33068;-72
2023/08/09 08:44:11;;;;;;;4.57;2.10;;;;;;;25.54;39.55;99852.72;4291518;33;32566;-70
2023/08/09 08:46:39;;;;;;;5.95;2.37;;;;;;;25.53;39.57;99852.97;4288430;33;33919;-72
2023/08/09 08:49:27;;;;;;;5.47;2.30;;;;;;;25.54;39.57;99847.25;4290458;33;33838;-70
2023/08/09 08:52:32;;;;;;;5.45;2.00;;;;;;;25.56;39.58;99850.59;4302233;33;34787;-73
2023/08/09 08:55:09;;;;;;;5.47;2.40;;;;;;;25.58;39.58;99853.06;4289945;33;33771;-70
2023/08/09 08:57:38;;;;;;;7.60;2.37;;;;;;;25.56;39.60;99853.31;4274848;33;33128;-71
2023/08/09 09:00:16;;;;;;;5.37;2.42;;;;;;;25.57;39.52;99843.22;4286262;33;34617;-72
2023/08/09 09:02:56;;;;;;;5.43;2.20;;;;;;;25.57;39.49;99844.06;4291159;33;32498;-72
2023/08/09 09:05:24;;;;;;;6.97;2.58;;;;;;;25.58;39.39;99842.16;4288722;33;34038;-72
2023/08/09 09:07:56;;;;;;;7.75;2.40;;;;;;;25.58;39.40;99842.97;4302664;33;34233;-71
2023/08/09 09:10:24;;;;;;;4.87;2.30;;;;;;;25.57;39.39;99841.31;4290227;33;34206;-71
2023/08/09 09:12:58;;;;;;;8.93;2.20;;;;;;;25.58;39.38;99853.91;4290353;33;34826;-72
2023/08/09 09:15:27;;;;;;;4.12;2.15;;;;;;;25.57;39.33;99838.59;4278641;33;34093;-71
2023/08/09 09:17:55;;;;;;;5.70;2.20;;;;;;;25.58;39.31;99851.16;4302340;33;34256;-70
2023/08/09 09:20:27;;;;;;;5.03;1.90;;;;;;;25.57;39.29;99840.50;4293638;33;34090;-71
2023/08/09 09:22:56;;;;;;;5.53;2.15;;;;;;;25.56;39.30;99838.84;4301424;33;33641;-72
2023/08/09 09:25:24;;;;;;;5.80;2.33;;;;;;;25.57;39.27;99841.31;4286653;33;33175;-71
2023/08/09 09:27:54;;;;;;;5.53;2.17;;;;;;;25.57;39.25;99838.59;4289806;33;33400;-71
2023/08/09 09:30:24;;;;;;;8.90;2.05;;;;;;;25.55;39.30;99845.34;4289874;33;33886;-72
2023/08/09 09:32:52;;;;;;;4.47;2.20;;;;;;;25.56;39.25;99838.84;4301587;33;34065;-72
2023/08/09 09:35:20;;;;;;;7.32;2.28;;;;;;;25.57;39.21;99837.75;4292435;33;33642;-72
2023/08/09 09:37:51;;;;;;;8.10;2.17;;;;;;;25.56;39.27;99836.09;4290622;33;31899;-70
2023/08/09 09:40:25;;;;;;;4.78;1.95;;;;;;;25.56;39.25;99830.63;4301294;33;34323;-72
2023/08/09 09:42:54;;;;;;;3.85;1.87;;;;;;;25.55;39.32;99835.25;4294774;33;33514;-71
2023/08/09 09:45:24;;;;;;;9.27;2.60;;;;;;;25.54;39.29;99830.84;4301811;33;33857;-70
2023/08/09 09:47:55;;;;;;;7.15;2.12;;;;;;;25.54;39.29;99836.31;4290183;33;34291;-72
2023/08/09 09:50:31;;;;;;;6.70;2.20;;;;;;;25.54;39.32;99836.31;4304291;33;34359;-71
2023/08/09 09:53:00;;;;;;;5.10;1.80;;;;;;;25.55;39.33;99839.88;4302413;33;34829;-72
2023/08/09 10:57:40;;;;;;;3.78;1.58;;;;;;;25.46;39.51;99817.59;4483698;27;20088;-71
2023/08/09 11:00:18;;;;;;;4.75;1.92;;;;;;;25.47;39.52;99813.78;4285232;33;33890;-70
2023/08/09 11:02:46;;;;;;;2.90;1.70;;;;;;;25.47;39.54;99813.78;4305347;33;33647;-70
2023/08/09 11:05:14;;;;;;;3.03;1.67;;;;;;;25.47;39.51;99810.22;4304376;33;33965;-69
2023/08/09 11:07:48;;;;;;;4.57;1.67;;;;;;;25.47;39.52;99811.03;4292632;33;32924;-70
2023/08/09 11:10:33;;;;;;;5.45;1.60;;;;;;;25.49;39.51;99811.63;4304585;33;33529;-70
2023/08/09 11:13:04;;;;;;;4.95;1.95;;;;;;;25.51;39.50;99811.37;4304202;33;34041;-71
2023/08/09 11:15:44;;;;;;;6.12;1.60;;;;;;;25.49;39.52;99808.91;4317354;33;34050;-70
2023/08/09 11:18:12;;;;;;;4.87;1.80;;;;;;;25.52;39.61;99811.16;4292493;33;33905;-70
2023/08/09 11:20:40;;;;;;;2.80;1.27;;;;;;;25.52;39.70;99799.41;4304140;33;34463;-70
2023/08/09 11:23:08;;;;;;;4.03;2.05;;;;;;;25.52;39.72;99805.69;4292086;33;32187;-69
2023/08/09 11:25:40;;;;;;;4.53;1.80;;;;;;;25.53;39.77;99811.97;4292525;33;32548;-70
2023/08/09 11:28:12;;;;;;;4.07;1.67;;;;;;;25.54;39.87;99809.00;4304157;33;33823;-72
2023/08/09 11:30:40;;;;;;;8.40;1.90;;;;;;;25.55;39.90;99810.66;4304041;33;33920;-69
2023/08/09 11:33:09;;;;;;;3.20;1.52;;;;;;;25.56;39.90;99806.88;4292245;33;33350;-70
2023/08/09 11:35:44;;;;;;;4.20;1.60;;;;;;;25.57;39.97;99810.44;4304038;33;33797;-70
2023/08/09 11:38:15;;;;;;;5.97;1.62;;;;;;;25.57;40.03;99803.06;4280208;33;34040;-70
2023/08/09 11:40:48;;;;;;;6.28;1.70;;;;;;;25.57;40.06;99803.06;4303955;33;33925;-70
2023/08/09 11:43:20;;;;;;;8.20;2.05;;;;;;;25.57;40.12;99792.12;4291853;33;33462;-70
2023/08/09 11:45:50;;;;;;;6.80;1.83;;;;;;;25.57;40.17;99802.25;4291876;33;33867;-71
2023/08/09 11:48:28;;;;;;;4.87;1.70;;;;;;;25.57;40.20;99799.50;4292413;33;33545;-70
2023/08/09 11:51:15;;;;;;;5.90;2.03;;;;;;;25.60;40.19;99802.59;4304049;33;33994;-71
2023/08/09 11:53:44;;;;;;;5.62;1.87;;;;;;;25.60;40.20;99804.47;4304055;33;33063;-70
2023/08/09 11:56:19;;;;;;;5.82;1.90;;;;;;;25.58;40.27;99807.44;4303871;33;34191;-70
2023/08/09 11:58:50;;;;;;;6.85;2.10;;;;;;;25.59;40.25;99806.38;4304304;33;33016;-72
2023/08/09 12:01:25;;;;;;;8.23;1.62;;;;;;;25.61;40.28;99806.97;4303934;33;33529;-71
2023/08/09 12:03:55;;;;;;;6.60;1.87;;;;;;;25.63;40.25;99804.81;4292002;33;33464;-71
2023/08/09 12:06:43;;;;;;;3.80;1.42;;;;;;;25.62;40.24;99805.91;4292164;33;33986;-70
2023/08/09 12:09:39;;;;;;;3.70;1.50;;;;;;;25.66;40.19;99807.09;4291669;33;33911;-72
2023/08/09 12:12:14;;;;;;;4.85;1.58;;;;;;;25.66;40.22;99800.78;4292204;33;34320;-71
2023/08/09 12:14:46;;;;;;;4.75;1.83;;;;;;;25.63;40.28;99804.00;4303586;33;32356;-69
2023/08/09 12:17:29;;;;;;;6.20;1.85;;;;;;;25.63;40.39;99802.09;4292322;33;33240;-70
2023/08/09 12:20:00;;;;;;;8.00;1.87;;;;;;;25.66;40.34;99798.88;4279918;33;33991;-71
2023/08/09 12:22:30;;;;;;;5.47;1.70;;;;;;;25.65;40.49;99804.59;4280527;33;33348;-71
2023/08/09 12:24:59;;;;;;;7.00;1.95;;;;;;;25.66;40.51;99798.88;4279788;33;33656;-70
2023/08/09 12:27:26;;;;;;;5.15;1.92;;;;;;;25.65;40.43;99801.88;4303700;33;33841;-71
2023/08/09 12:29:54;;;;;;;7.00;2.05;;;;;;;25.65;40.43;99808.16;4291712;33;34130;-71
2023/08/09 12:32:22;;;;;;;5.22;1.85;;;;;;;25.65;40.45;99802.69;4291718;33;33455;-71
2023/08/09 12:34:50;;;;;;;7.53;1.90;;;;;;;25.64;40.54;99803.75;4291686;33;33234;-71
2023/08/09 12:37:18;;;;;;;5.55;1.55;;;;;;;25.65;40.55;99794.50;4303465;33;33571;-70
2023/08/09 12:39:47;;;;;;;8.05;2.00;;;;;;;25.64;40.58;99801.00;4291243;33;33533;-70
2023/08/09 12:42:14;;;;;;;4.18;1.70;;;;;;;25.64;40.58;99806.47;4303551;33;33784;-71
2023/08/09 12:44:42;;;;;;;4.93;1.67;;;;;;;25.66;40.59;99800.78;4279666;33;34291;-71
2023/08/09 12:47:10;;;;;;;7.53;1.90;;;;;;;25.65;40.62;99797.25;4267829;33;32985;-71